createdAt,value
2018-11-05T00:01:57.437Z,9.90
2018-11-05T00:04:26.029Z,9.90
2018-11-05T00:06:54.485Z,9.80
2018-11-05T00:09:23.095Z,9.80
2018-11-05T00:11:51.666Z,9.80
2018-11-05T00:14:20.347Z,9.90
2018-11-05T00:16:48.793Z,9.90
2018-11-05T00:19:17.796Z,9.90
2018-11-05T00:21:46.724Z,9.90
2018-11-05T00:24:15.381Z,9.90
2018-11-05T00:26:44.405Z,9.90
2018-11-05T00:29:13.182Z,9.80
2018-11-05T00:31:41.870Z,9.80
2018-11-05T00:34:10.818Z,9.80
2018-11-05T00:36:39.588Z,9.80
2018-11-05T00:39:10.211Z,9.70
2018-11-05T00:41:39.065Z,9.70
2018-11-05T00:44:07.942Z,9.70
2018-11-05T00:46:36.510Z,9.60
2018-11-05T00:49:06.111Z,9.60
2018-11-05T00:51:35.006Z,9.50
2018-11-05T00:54:03.730Z,9.50
2018-11-05T00:56:32.430Z,9.50
2018-11-05T00:59:01.085Z,9.50
2018-11-05T01:01:29.894Z,9.50
2018-11-05T01:03:58.365Z,9.50
2018-11-05T01:06:26.837Z,9.50
2018-11-05T01:08:55.353Z,9.50
2018-11-05T01:11:23.815Z,9.40
2018-11-05T01:13:52.355Z,9.50
2018-11-05T01:16:20.827Z,9.40
2018-11-05T01:18:49.287Z,9.40
2018-11-05T01:21:17.741Z,9.50
2018-11-05T01:23:46.216Z,9.50
2018-11-05T01:26:14.683Z,9.50
2018-11-05T01:28:43.142Z,9.50
2018-11-05T01:31:11.610Z,9.50
2018-11-05T01:33:40.045Z,9.60
2018-11-05T01:36:08.491Z,9.60
2018-11-05T01:38:36.939Z,9.70
2018-11-05T01:41:05.491Z,9.70
2018-11-05T01:43:33.958Z,9.80
2018-11-05T01:46:02.414Z,9.90
2018-11-05T01:48:30.915Z,9.90
2018-11-05T01:50:59.381Z,10.00
2018-11-05T01:53:27.868Z,10.00
2018-11-05T01:55:56.382Z,10.00
2018-11-05T01:58:24.919Z,10.00
2018-11-05T02:00:53.401Z,10.10
2018-11-05T02:03:21.895Z,10.10
2018-11-05T02:05:50.365Z,10.10
2018-11-05T02:08:18.889Z,10.10
2018-11-05T02:10:47.357Z,10.10
2018-11-05T02:13:15.901Z,10.10
2018-11-05T02:15:44.324Z,10.10
2018-11-05T02:18:12.810Z,10.10
2018-11-05T02:20:41.283Z,10.10
2018-11-05T02:23:09.794Z,10.10
2018-11-05T02:25:38.242Z,10.10
2018-11-05T02:28:06.929Z,10.10
2018-11-05T02:30:35.401Z,10.10
2018-11-05T02:33:03.866Z,10.10
2018-11-05T02:35:32.338Z,10.10
2018-11-05T02:38:00.847Z,10.10
2018-11-05T02:40:29.317Z,10.10
2018-11-05T02:42:57.816Z,10.20
2018-11-05T02:45:26.303Z,10.20
2018-11-05T02:47:54.766Z,10.20
2018-11-05T02:50:23.234Z,10.10
2018-11-05T02:52:51.721Z,10.10
2018-11-05T02:55:20.195Z,10.20
2018-11-05T02:57:48.666Z,10.20
2018-11-05T03:00:18.266Z,10.20
2018-11-05T03:02:46.813Z,10.20
2018-11-05T03:05:16.584Z,10.20
2018-11-05T03:07:45.765Z,10.20
2018-11-05T03:10:14.554Z,10.20
2018-11-05T03:12:43.630Z,10.30
2018-11-05T03:15:13.361Z,10.30
2018-11-05T03:17:41.866Z,10.30
2018-11-05T03:20:11.441Z,10.20
2018-11-05T03:22:40.642Z,10.20
2018-11-05T03:25:09.319Z,10.20
2018-11-05T03:27:38.140Z,10.20
2018-11-05T03:30:14.035Z,10.20
2018-11-05T03:32:42.716Z,10.20
2018-11-05T03:35:12.265Z,10.20
2018-11-05T03:37:41.755Z,10.20
2018-11-05T03:40:11.275Z,10.20
2018-11-05T03:42:40.285Z,10.10
2018-11-05T03:45:10.053Z,10.10
2018-11-05T03:47:38.875Z,10.20
2018-11-05T03:50:09.901Z,10.10
2018-11-05T03:52:38.382Z,10.10
2018-11-05T03:55:06.909Z,10.10
2018-11-05T03:57:35.430Z,10.10
2018-11-05T04:00:04.362Z,10.10
2018-11-05T04:02:32.945Z,10.10
2018-11-05T04:05:01.418Z,10.00
2018-11-05T04:07:29.922Z,10.10
2018-11-05T04:09:58.389Z,10.00
2018-11-05T04:12:26.855Z,10.00
2018-11-05T04:14:55.328Z,10.00
2018-11-05T04:17:23.790Z,10.00
2018-11-05T04:19:52.266Z,10.10
2018-11-05T04:22:20.730Z,10.10
2018-11-05T04:24:49.238Z,10.10
2018-11-05T04:27:17.686Z,10.10
2018-11-05T04:29:46.168Z,10.10
2018-11-05T04:32:14.617Z,10.10
2018-11-05T04:34:43.137Z,10.10
2018-11-05T04:37:11.573Z,10.10
2018-11-05T04:39:46.578Z,10.10
2018-11-05T04:42:15.053Z,10.10
2018-11-05T04:44:43.819Z,10.10
2018-11-05T04:47:12.281Z,10.10
2018-11-05T04:49:40.738Z,10.20
2018-11-05T04:52:09.187Z,10.20
2018-11-05T04:54:37.634Z,10.20
2018-11-05T04:57:06.115Z,10.20
2018-11-05T04:59:34.594Z,10.20
2018-11-05T05:02:03.051Z,10.20
2018-11-05T05:04:31.517Z,10.20
2018-11-05T05:06:59.962Z,10.20
2018-11-05T05:09:28.478Z,10.20
2018-11-05T05:11:57.879Z,10.20
2018-11-05T05:14:26.365Z,10.20
2018-11-05T05:16:54.845Z,10.20
2018-11-05T05:19:23.341Z,10.20
2018-11-05T05:21:51.825Z,10.30
2018-11-05T05:24:20.319Z,10.30
2018-11-05T05:26:48.815Z,10.40
2018-11-05T05:29:17.333Z,10.40
2018-11-05T05:31:45.853Z,10.40
2018-11-05T05:34:14.366Z,10.40
2018-11-05T05:36:42.903Z,10.50
2018-11-05T05:39:11.543Z,10.50
2018-11-05T05:41:40.503Z,10.50
2018-11-05T05:44:08.975Z,10.50
2018-11-05T05:46:37.617Z,10.50
2018-11-05T05:49:06.133Z,10.50
2018-11-05T05:51:34.678Z,10.50
2018-11-05T05:54:03.621Z,10.60
2018-11-05T05:56:32.174Z,10.60
2018-11-05T05:59:00.616Z,10.70
2018-11-05T06:01:29.090Z,10.70
2018-11-05T06:03:57.581Z,10.80
2018-11-05T06:06:26.062Z,10.80
2018-11-05T06:08:54.513Z,10.90
2018-11-05T06:11:22.989Z,10.90
2018-11-05T06:13:51.462Z,11.00
2018-11-05T06:16:19.956Z,11.00
2018-11-05T06:18:48.421Z,11.00
2018-11-05T06:21:16.905Z,11.10
2018-11-05T06:23:45.543Z,11.10
2018-11-05T06:26:14.013Z,11.10
2018-11-05T06:28:42.489Z,11.20
2018-11-05T06:31:10.908Z,11.20
2018-11-05T06:33:39.476Z,11.20
2018-11-05T06:36:07.983Z,11.20
2018-11-05T06:38:36.458Z,11.20
2018-11-05T06:41:05.705Z,11.20
2018-11-05T06:43:34.185Z,11.30
2018-11-05T06:46:02.622Z,11.30
2018-11-05T06:48:31.126Z,11.30
2018-11-05T06:50:59.611Z,11.30
2018-11-05T06:53:28.050Z,11.30
2018-11-05T06:55:56.533Z,11.30
2018-11-05T06:58:24.981Z,11.40
2018-11-05T07:00:53.445Z,11.40
2018-11-05T07:03:21.909Z,11.40
2018-11-05T07:05:50.482Z,11.40
2018-11-05T07:08:18.878Z,11.50
2018-11-05T07:10:47.334Z,11.50
2018-11-05T07:13:15.822Z,11.50
2018-11-05T07:15:44.286Z,11.50
2018-11-05T07:18:12.821Z,11.50
2018-11-05T07:20:41.258Z,11.60
2018-11-05T07:23:09.757Z,11.60
2018-11-05T07:25:38.229Z,11.60
2018-11-05T07:28:06.961Z,11.60
2018-11-05T07:30:35.440Z,11.60
2018-11-05T07:33:04.024Z,11.70
2018-11-05T07:35:32.562Z,11.70
2018-11-05T07:38:01.045Z,11.80
2018-11-05T07:40:29.536Z,11.80
2018-11-05T07:42:57.988Z,11.80
2018-11-05T07:45:26.473Z,11.80
2018-11-05T07:47:54.902Z,11.80
2018-11-05T07:50:23.525Z,11.90
2018-11-05T07:52:52.420Z,11.90
2018-11-05T07:55:21.295Z,11.90
2018-11-05T07:57:50.524Z,12.00
2018-11-05T08:00:24.251Z,12.40
2018-11-05T08:02:54.147Z,12.40
2018-11-05T08:05:23.322Z,12.30
2018-11-05T08:07:51.902Z,12.30
2018-11-05T08:10:20.422Z,12.30
2018-11-05T08:12:48.895Z,12.30
2018-11-05T08:15:19.602Z,12.40
2018-11-05T08:17:49.122Z,12.20
2018-11-05T08:20:17.611Z,12.20
2018-11-05T08:22:46.089Z,12.20
2018-11-05T08:25:15.350Z,12.10
2018-11-05T08:27:43.904Z,12.10
2018-11-05T08:30:17.990Z,12.00
2018-11-05T08:32:46.475Z,12.00
2018-11-05T08:35:15.198Z,12.10
2018-11-05T08:37:44.830Z,12.10
2018-11-05T08:40:15.748Z,12.10
2018-11-05T08:42:45.062Z,12.20
2018-11-05T08:45:20.785Z,12.30
2018-11-05T08:47:49.301Z,12.30
2018-11-05T08:50:19.015Z,12.30
2018-11-05T08:52:47.396Z,12.30
2018-11-05T08:55:20.360Z,12.30
2018-11-05T08:57:49.018Z,12.30
2018-11-05T09:00:23.481Z,12.40
2018-11-05T09:02:52.429Z,12.30
2018-11-05T09:05:21.265Z,12.40
2018-11-05T09:07:50.554Z,12.50
2018-11-05T09:10:19.093Z,12.40
2018-11-05T09:12:47.543Z,12.40
2018-11-05T09:15:17.310Z,12.50
2018-11-05T09:17:46.285Z,12.50
2018-11-05T09:20:16.017Z,12.60
2018-11-05T09:22:44.479Z,12.70
2018-11-05T09:25:13.826Z,12.70
2018-11-05T09:27:42.276Z,12.80
2018-11-05T09:30:13.325Z,12.90
2018-11-05T09:32:42.062Z,12.80
2018-11-05T09:35:10.593Z,12.90
2018-11-05T09:37:39.327Z,12.90
2018-11-05T09:40:09.877Z,12.90
2018-11-05T09:42:39.109Z,13.00
2018-11-05T09:45:11.939Z,12.90
2018-11-05T09:47:40.631Z,13.00
2018-11-05T09:50:09.846Z,13.00
2018-11-05T09:52:38.346Z,13.00
2018-11-05T09:55:07.429Z,13.00
2018-11-05T09:57:35.920Z,13.00
2018-11-05T10:00:04.775Z,13.10
2018-11-05T10:02:38.629Z,13.00
2018-11-05T10:05:07.305Z,13.00
2018-11-05T10:07:35.553Z,13.00
2018-11-05T10:10:04.575Z,13.00
2018-11-05T10:12:33.041Z,13.10
2018-11-05T10:15:01.491Z,13.00
2018-11-05T10:17:29.977Z,13.10
2018-11-05T10:19:58.427Z,13.10
2018-11-05T10:22:26.897Z,13.20
2018-11-05T10:24:55.783Z,13.50
2018-11-05T10:27:24.523Z,13.80
2018-11-05T10:29:52.993Z,13.90
2018-11-05T10:32:21.507Z,14.00
2018-11-05T10:34:49.996Z,14.40
2018-11-05T10:37:18.473Z,15.20
2018-11-05T10:39:46.951Z,15.60
2018-11-05T10:42:15.475Z,15.70
2018-11-05T10:44:43.938Z,15.90
2018-11-05T10:47:12.384Z,15.70
2018-11-05T10:49:40.850Z,15.20
2018-11-05T10:52:09.785Z,15.10
2018-11-05T10:54:38.133Z,14.80
2018-11-05T10:57:06.609Z,14.60
2018-11-05T10:59:35.058Z,14.50
2018-11-05T11:02:08.925Z,14.30
2018-11-05T11:04:37.419Z,14.60
2018-11-05T11:07:05.860Z,14.40
2018-11-05T11:09:34.387Z,14.30
2018-11-05T11:12:02.835Z,14.30
2018-11-05T11:14:31.315Z,14.70
2018-11-05T11:16:59.768Z,14.80
2018-11-05T11:19:28.306Z,14.70
2018-11-05T11:21:57.718Z,15.00
2018-11-05T11:24:26.133Z,15.20
2018-11-05T11:26:54.609Z,15.40
2018-11-05T11:29:23.231Z,14.80
2018-11-05T11:31:51.571Z,14.60
2018-11-05T11:34:20.044Z,14.50
2018-11-05T11:36:48.653Z,15.10
2018-11-05T11:39:17.011Z,16.30
2018-11-05T11:41:45.479Z,16.80
2018-11-05T11:44:14.209Z,17.30
2018-11-05T11:46:42.441Z,17.00
2018-11-05T11:49:10.999Z,16.80
2018-11-05T11:51:39.443Z,16.40
2018-11-05T11:54:07.920Z,16.10
2018-11-05T11:56:36.427Z,16.40
2018-11-05T11:59:05.016Z,17.30
2018-11-05T12:01:37.662Z,18.10
2018-11-05T12:04:06.113Z,18.50
2018-11-05T12:06:34.582Z,18.50
2018-11-05T12:09:03.300Z,18.40
2018-11-05T12:11:31.760Z,18.10
2018-11-05T12:14:00.246Z,18.10
2018-11-05T12:16:28.632Z,18.40
2018-11-05T12:18:57.090Z,18.60
2018-11-05T12:21:25.559Z,17.80
2018-11-05T12:26:28.792Z,18.30
2018-11-05T12:28:57.224Z,17.90
2018-11-05T12:31:25.677Z,17.70
2018-11-05T12:33:54.199Z,17.00
2018-11-05T12:36:22.668Z,16.50
2018-11-05T12:38:51.180Z,16.00
2018-11-05T12:41:19.633Z,15.50
2018-11-05T12:43:48.079Z,15.30
2018-11-05T12:46:16.562Z,15.10
2018-11-05T12:48:45.031Z,15.00
2018-11-05T12:51:13.486Z,15.50
2018-11-05T12:53:41.934Z,16.40
2018-11-05T12:56:10.366Z,16.80
2018-11-05T12:58:38.839Z,17.10
2018-11-05T13:01:07.330Z,16.70
2018-11-05T13:03:35.774Z,16.20
2018-11-05T13:06:04.479Z,16.30
2018-11-05T13:08:32.918Z,16.70
2018-11-05T13:11:01.420Z,16.20
2018-11-05T13:13:29.847Z,16.60
2018-11-05T13:15:58.302Z,16.60
2018-11-05T13:18:26.845Z,16.60
2018-11-05T13:20:55.285Z,16.50
2018-11-05T13:23:29.386Z,16.20
2018-11-05T13:25:57.835Z,16.20
2018-11-05T13:28:26.352Z,16.50
2018-11-05T13:30:54.778Z,16.50
2018-11-05T13:33:23.248Z,16.60
2018-11-05T13:35:51.706Z,16.40
2018-11-05T13:38:20.567Z,16.50
2018-11-05T13:40:48.725Z,16.00
2018-11-05T13:43:17.381Z,15.50
2018-11-05T13:45:46.093Z,15.20
2018-11-05T13:48:14.613Z,15.10
2018-11-05T13:50:43.531Z,14.90
2018-11-05T13:53:12.022Z,15.00
2018-11-05T13:55:40.485Z,15.00
2018-11-05T13:58:08.973Z,14.90
2018-11-05T14:00:37.468Z,14.60
2018-11-05T14:03:06.418Z,14.40
2018-11-05T14:05:34.912Z,14.20
2018-11-05T14:08:03.439Z,14.20
2018-11-05T14:10:31.845Z,14.30
2018-11-05T14:13:00.308Z,14.30
2018-11-05T14:15:28.804Z,14.10
2018-11-05T14:17:57.329Z,14.10
2018-11-05T14:20:25.784Z,14.00
2018-11-05T14:22:57.242Z,14.00
2018-11-05T14:25:25.813Z,14.00
2018-11-05T14:27:54.438Z,13.90
2018-11-05T14:30:22.763Z,13.90
2018-11-05T14:32:51.497Z,13.90
2018-11-05T14:35:19.958Z,13.90
2018-11-05T14:37:48.424Z,13.80
2018-11-05T14:40:17.764Z,13.80
2018-11-05T14:42:46.313Z,13.80
2018-11-05T14:45:17.091Z,13.70
2018-11-05T14:47:46.318Z,13.60
2018-11-05T14:50:16.481Z,13.70
2018-11-05T14:52:44.951Z,13.70
2018-11-05T14:55:15.413Z,13.70
2018-11-05T14:57:44.776Z,13.70
2018-11-05T15:00:15.523Z,13.80
2018-11-05T15:02:44.654Z,13.80
2018-11-05T15:05:13.812Z,13.80
2018-11-05T15:07:43.308Z,13.70
2018-11-05T15:10:14.276Z,13.70
2018-11-05T15:12:43.034Z,13.60
2018-11-05T15:15:12.399Z,13.60
2018-11-05T15:17:41.686Z,13.50
2018-11-05T15:20:12.480Z,13.50
2018-11-05T15:22:40.855Z,13.40
2018-11-05T15:25:09.413Z,13.30
2018-11-05T15:27:38.629Z,13.30
2018-11-05T15:30:10.727Z,13.30
2018-11-05T15:32:39.904Z,13.20
2018-11-05T15:35:08.467Z,13.20
2018-11-05T15:37:37.463Z,13.20
2018-11-05T15:40:06.431Z,13.20
2018-11-05T15:42:35.308Z,13.10
2018-11-05T15:45:03.916Z,13.10
2018-11-05T15:47:32.429Z,13.10
2018-11-05T15:50:00.903Z,13.10
2018-11-05T15:52:29.581Z,13.10
2018-11-05T15:54:57.821Z,13.00
2018-11-05T15:57:26.297Z,12.90
2018-11-05T15:59:54.742Z,12.90
2018-11-05T16:02:23.202Z,12.90
2018-11-05T16:04:51.722Z,12.80
2018-11-05T16:07:20.154Z,12.80
2018-11-05T16:09:48.598Z,12.80
2018-11-05T16:12:17.103Z,12.70
2018-11-05T16:14:45.652Z,12.70
2018-11-05T16:17:14.114Z,12.70
2018-11-05T16:19:42.595Z,12.70
2018-11-05T16:22:11.068Z,12.60
2018-11-05T16:24:39.548Z,12.60
2018-11-05T16:27:08.011Z,12.50
2018-11-05T16:29:36.475Z,12.60
2018-11-05T16:32:05.008Z,12.50
2018-11-05T16:34:33.465Z,12.50
2018-11-05T16:37:01.922Z,12.40
2018-11-05T16:39:30.370Z,12.40
2018-11-05T16:41:58.827Z,12.40
2018-11-05T16:44:27.331Z,12.30
2018-11-05T16:46:55.787Z,12.30
2018-11-05T16:49:24.278Z,12.20
2018-11-05T16:51:52.753Z,12.20
2018-11-05T16:54:21.248Z,12.20
2018-11-05T16:56:49.690Z,12.20
2018-11-05T16:59:18.157Z,12.10
2018-11-05T17:01:47.151Z,12.10
2018-11-05T17:04:15.253Z,12.20
2018-11-05T17:06:43.692Z,12.10
2018-11-05T17:09:12.163Z,12.10
2018-11-05T17:11:40.611Z,12.00
2018-11-05T17:14:09.082Z,12.00
2018-11-05T17:16:37.549Z,12.00
2018-11-05T17:19:06.046Z,12.00
2018-11-05T17:21:34.495Z,12.00
2018-11-05T17:24:02.939Z,12.00
2018-11-05T17:26:31.678Z,12.00
2018-11-05T17:29:00.245Z,12.00
2018-11-05T17:31:28.714Z,11.90
2018-11-05T17:33:57.241Z,11.90
2018-11-05T17:36:25.727Z,11.90
2018-11-05T17:38:54.177Z,11.90
2018-11-05T17:41:22.639Z,11.90
2018-11-05T17:43:51.114Z,11.90
2018-11-05T17:46:19.651Z,11.90
2018-11-05T17:48:48.137Z,11.80
2018-11-05T17:51:16.623Z,11.80
2018-11-05T17:53:45.038Z,11.90
2018-11-05T17:56:13.522Z,11.90
2018-11-05T17:58:42.046Z,11.90
2018-11-05T18:01:10.584Z,11.90
2018-11-05T18:03:39.055Z,11.90
2018-11-05T18:06:07.579Z,11.90
2018-11-05T18:08:36.079Z,11.90
2018-11-05T18:11:04.566Z,11.90
2018-11-05T18:13:33.097Z,11.90
2018-11-05T18:16:01.582Z,11.80
2018-11-05T18:18:30.546Z,11.80
2018-11-05T18:20:59.123Z,11.90
2018-11-05T18:23:28.092Z,11.80
2018-11-05T18:25:56.629Z,11.80
2018-11-05T18:28:25.195Z,11.80
2018-11-05T18:30:53.828Z,11.70
2018-11-05T18:33:22.346Z,11.70
2018-11-05T18:35:50.854Z,11.70
2018-11-05T18:38:19.538Z,11.70
2018-11-05T18:40:48.490Z,11.70
2018-11-05T18:43:17.182Z,11.60
2018-11-05T18:45:46.007Z,11.70
2018-11-05T18:48:14.902Z,11.60
2018-11-05T18:50:44.078Z,11.50
2018-11-05T18:53:12.624Z,11.50
2018-11-05T18:55:41.427Z,11.50
2018-11-05T18:58:10.034Z,11.50
2018-11-05T19:00:43.358Z,11.40
2018-11-05T19:03:11.937Z,11.40
2018-11-05T19:05:40.378Z,11.40
2018-11-05T19:08:08.917Z,11.30
2018-11-05T19:10:37.644Z,11.30
2018-11-05T19:13:06.346Z,11.20
2018-11-05T19:15:34.973Z,11.20
2018-11-05T19:18:03.464Z,11.10
2018-11-05T19:20:31.929Z,11.10
2018-11-05T19:23:00.725Z,11.10
2018-11-05T19:25:29.161Z,11.00
2018-11-05T19:27:57.639Z,11.00
2018-11-05T19:30:27.849Z,11.00
2018-11-05T19:32:56.219Z,11.00
2018-11-05T19:35:25.130Z,11.00
2018-11-05T19:37:53.675Z,11.00
2018-11-05T19:40:22.203Z,11.00
2018-11-05T19:42:51.102Z,10.90
2018-11-05T19:45:20.997Z,11.10
2018-11-05T19:47:49.612Z,11.30
2018-11-05T19:50:19.301Z,11.30
2018-11-05T19:52:49.135Z,11.20
2018-11-05T19:55:18.276Z,11.20
2018-11-05T19:57:48.035Z,11.10
2018-11-05T20:00:24.966Z,11.10
2018-11-05T20:02:53.910Z,11.10
2018-11-05T20:05:22.679Z,11.10
2018-11-05T20:07:52.218Z,11.10
2018-11-05T20:10:20.805Z,11.00
2018-11-05T20:12:49.669Z,11.10
2018-11-05T20:15:18.665Z,11.10
2018-11-05T20:17:47.999Z,11.10
2018-11-05T20:20:17.870Z,11.10
2018-11-05T20:22:46.465Z,11.00
2018-11-05T20:25:15.649Z,11.00
2018-11-05T20:27:44.508Z,11.00
2018-11-05T20:30:15.919Z,11.00
2018-11-05T20:32:45.698Z,11.00
2018-11-05T20:35:14.354Z,11.00
2018-11-05T20:37:43.097Z,10.90
2018-11-05T20:40:14.990Z,10.90
2018-11-05T20:42:44.683Z,10.80
2018-11-05T20:45:13.860Z,10.90
2018-11-05T20:47:42.776Z,10.90
2018-11-05T20:50:12.529Z,10.90
2018-11-05T20:52:41.097Z,10.80
2018-11-05T20:55:11.183Z,10.90
2018-11-05T20:57:40.308Z,10.90
2018-11-05T21:00:10.598Z,10.80
2018-11-05T21:02:40.333Z,10.80
2018-11-05T21:05:08.866Z,10.80
2018-11-05T21:07:37.470Z,10.70
2018-11-05T21:10:08.198Z,10.70
2018-11-05T21:12:36.944Z,10.70
2018-11-05T21:15:07.110Z,10.70
2018-11-05T21:17:35.626Z,10.70
2018-11-05T21:20:04.474Z,10.80
2018-11-05T21:22:33.209Z,10.70
2018-11-05T21:25:01.973Z,10.80
2018-11-05T21:27:30.699Z,10.80
2018-11-05T21:29:59.260Z,10.80
2018-11-05T21:32:27.743Z,10.80
2018-11-05T21:34:56.294Z,10.80
2018-11-05T21:37:24.706Z,10.80
2018-11-05T21:39:53.195Z,10.80
2018-11-05T21:42:21.658Z,10.70
2018-11-05T21:44:50.181Z,10.70
2018-11-05T21:48:43.150Z,10.70
2018-11-05T21:51:11.717Z,10.70
2018-11-05T21:53:40.236Z,10.70
2018-11-05T21:56:08.733Z,10.70
2018-11-05T21:58:37.245Z,10.70
2018-11-05T22:01:06.230Z,10.60
2018-11-05T22:03:34.878Z,10.60
2018-11-05T22:06:03.768Z,10.60
2018-11-05T22:08:32.352Z,10.60
2018-11-05T22:11:01.205Z,10.60
2018-11-05T22:13:29.779Z,10.50
2018-11-05T22:15:58.399Z,10.50
2018-11-05T22:18:26.888Z,10.50
2018-11-05T22:20:55.490Z,10.50
2018-11-05T22:23:24.649Z,10.40
2018-11-05T22:25:53.133Z,10.40
2018-11-05T22:28:21.949Z,10.30
2018-11-05T22:30:50.526Z,10.30
2018-11-05T22:33:19.154Z,10.30
2018-11-05T22:35:47.697Z,10.20
2018-11-05T22:38:16.308Z,10.20
2018-11-05T22:40:44.852Z,10.20
2018-11-05T22:43:13.522Z,10.10
2018-11-05T22:45:42.043Z,10.10
2018-11-05T22:48:10.693Z,10.10
2018-11-05T22:50:39.433Z,10.10
2018-11-05T22:53:08.023Z,10.10
2018-11-05T22:55:36.562Z,10.00
2018-11-05T22:58:05.804Z,10.10
2018-11-05T23:00:39.669Z,10.00
2018-11-05T23:03:20.136Z,10.10
2018-11-05T23:05:48.743Z,10.10
2018-11-05T23:08:17.282Z,10.00
2018-11-05T23:10:45.778Z,10.00
2018-11-05T23:13:14.434Z,10.00
2018-11-05T23:15:43.310Z,10.00
2018-11-05T23:18:11.888Z,10.00
2018-11-05T23:20:40.493Z,10.00
2018-11-05T23:23:09.106Z,10.00
2018-11-05T23:25:37.701Z,10.00
2018-11-05T23:28:06.684Z,10.00
2018-11-05T23:30:35.618Z,10.00
2018-11-05T23:33:04.190Z,10.00
2018-11-05T23:35:32.987Z,10.00
2018-11-05T23:38:01.494Z,10.00
2018-11-05T23:40:29.990Z,10.00
2018-11-05T23:42:58.473Z,9.90
2018-11-05T23:45:26.974Z,9.90
2018-11-05T23:47:55.462Z,9.90
2018-11-05T23:50:24.097Z,9.80
2018-11-05T23:52:52.568Z,9.80
2018-11-05T23:55:21.393Z,9.80
2018-11-05T23:57:49.908Z,9.70
